Time;durP1;ratioP1;P1;durP2;ratioP2;P2;SDS_P1;SDS_P2;PMS_P1;PMS_P2;Temp;Humidity;BMP_temperature;BMP_pressure;BME280_temperature;BME280_humidity;BME280_pressure;Samples;Min_cycle;Max_cycle;Signal;HPM_P1;HPM_P2
2022/05/29 06:53:45;;;;;;;;;5.75;3.00;;;;;13.85;41.82;101267.47;6014936;23;46888;-59
2022/05/29 06:56:12;;;;;;;;;3.00;3.00;;;;;13.87;41.39;101249.81;4961611;28;46322;-60
2022/05/29 06:58:38;;;;;;;;;1.25;1.25;;;;;13.95;41.58;101258.47;4961938;28;45262;-60
2022/05/29 07:09:18;;;;;;;;;1.00;1.00;;;;;14.23;41.71;101252.59;4961155;28;45267;-61
2022/05/29 07:11:46;;;;;;;;;3.00;2.25;;;;;14.34;41.61;101254.16;4961858;28;45406;-60
2022/05/29 07:14:11;;;;;;;;;3.00;1.75;;;;;14.43;41.16;101267.19;4962117;28;45231;-61
2022/05/29 07:16:37;;;;;;;;;0.75;0.75;;;;;14.52;41.31;101263.47;4961432;28;46666;-61
2022/05/29 07:19:04;;;;;;;;;2.00;2.00;;;;;14.59;41.22;101258.00;4961964;28;45142;-61
2022/05/29 07:21:33;;;;;;;;;2.00;2.00;;;;;14.67;41.11;101257.84;4960574;28;45376;-60
2022/05/29 07:23:59;;;;;;;;;1.25;1.25;;;;;14.77;41.46;101254.09;4961219;28;45520;-61
2022/05/29 07:26:25;;;;;;;;;3.50;1.00;;;;;14.84;41.40;101254.84;4961216;28;47245;-61
2022/05/29 07:28:51;;;;;;;;;2.50;2.50;;;;;14.91;41.32;101253.75;4961934;28;45283;-61
2022/05/29 07:31:17;;;;;;;;;3.25;1.75;;;;;14.99;41.04;101255.34;4961600;28;45240;-59
2022/05/29 07:33:42;;;;;;;;;2.00;1.25;;;;;15.03;41.33;101246.41;4961626;28;45414;-58
2022/05/29 07:36:11;;;;;;;;;1.50;1.50;;;;;15.09;40.77;101254.22;4961491;28;45279;-61
2022/05/29 07:38:38;;;;;;;;;1.75;1.75;;;;;15.12;41.03;101246.22;4961211;28;45335;-60
2022/05/29 07:43:18;;;;;;;;;2.75;2.25;;;;;15.20;40.81;101246.00;4960515;28;45346;-58
2022/05/29 07:43:54;;;;;;;;;1.25;1.00;;;;;15.27;41.11;101248.47;4961113;28;45465;-60
2022/05/29 07:46:20;;;;;;;;;2.50;2.50;;;;;15.37;40.67;101251.75;4961196;28;46567;-59
2022/05/29 07:48:45;;;;;;;;;3.25;2.00;;;;;15.44;40.90;101248.03;4959883;28;45305;-60
2022/05/29 07:51:10;;;;;;;;;2.75;1.75;;;;;15.52;40.98;101250.47;4960337;28;45720;-58
2022/05/29 07:53:37;;;;;;;;;0.75;0.75;;;;;15.58;40.90;101247.66;4961125;28;45414;-48
2022/05/29 07:56:03;;;;;;;;;2.25;1.50;;;;;15.66;40.60;101244.78;4961125;28;45263;-58
2022/05/29 07:58:28;;;;;;;;;1.50;1.00;;;;;15.74;40.84;101249.88;4961057;28;45262;-58
2022/05/29 08:00:54;;;;;;;;;3.00;2.00;;;;;15.79;40.72;101242.66;4961286;28;45417;-58
2022/05/29 08:03:22;;;;;;;;;3.50;1.75;;;;;15.83;40.70;101240.84;4961070;28;45366;-59
2022/05/29 08:05:47;;;;;;;;;1.00;1.00;;;;;15.88;40.60;101247.72;4961073;28;45531;-54
2022/05/29 08:08:13;;;;;;;;;2.00;2.00;;;;;15.96;40.19;101236.06;4960810;28;45275;-58
2022/05/29 08:10:41;;;;;;;;;1.00;1.00;;;;;16.03;40.18;101242.91;4960020;28;45499;-55
2022/05/29 08:13:07;;;;;;;;;2.00;2.00;;;;;16.09;40.26;101229.50;4960958;28;45449;-56
2022/05/29 08:15:33;;;;;;;;;2.00;2.00;;;;;16.13;39.82;101231.13;4960794;28;45427;-55
2022/05/29 08:17:58;;;;;;;;;1.00;1.00;;;;;16.20;39.90;101224.72;4958801;28;45395;-55
2022/05/29 08:20:24;;;;;;;;;2.50;2.50;;;;;16.27;40.10;101227.19;4959385;28;45318;-58
2022/05/29 08:22:49;;;;;;;;;2.75;1.50;;;;;16.32;39.99;101223.47;4960597;28;45309;-57
2022/05/29 08:30:51;;;;;;;;;2.00;2.00;;;;;16.53;39.89;101219.31;4960897;28;45251;-56
2022/05/29 08:33:23;;;;;;;;;2.00;1.00;;;;;16.61;39.39;101224.34;4959744;28;45366;-56
2022/05/29 08:35:53;;;;;;;;;2.00;2.00;;;;;16.67;39.33;101218.84;4959445;28;46124;-62
2022/05/29 08:38:18;;;;;;;;;1.00;1.00;;;;;16.76;39.13;101217.69;4947096;28;45812;-59
2022/05/29 08:40:47;;;;;;;;;0.25;0.00;;;;;16.84;39.22;101210.38;4954805;28;45393;-59
2022/05/29 08:45:50;;;;;;;;;1.00;1.00;;;;;16.97;38.83;101208.19;5898751;23;46576;-60
2022/05/29 08:48:19;;;;;;;;;2.00;2.00;;;;;16.99;38.85;101210.78;4955572;28;45486;-60
2022/05/29 09:29:34;;;;;;;;;2.25;1.00;;;;;17.69;37.24;101186.19;5484321;23;45426;-61
2022/05/29 09:31:59;;;;;;;;;2.25;2.00;;;;;17.77;37.34;101174.41;4962213;28;45265;-64
2022/05/29 09:34:25;;;;;;;;;1.00;1.00;;;;;17.86;37.27;101174.03;4963560;28;45254;-64
2022/05/29 09:37:04;;;;;;;;;0.50;0.50;;;;;17.95;37.22;101178.19;4964989;28;48230;-64
2022/05/29 09:39:37;;;;;;;;;0.00;0.00;;;;;18.01;37.08;101177.94;4976693;28;45538;-63
2022/05/29 09:42:02;;;;;;;;;1.25;1.25;;;;;18.08;37.12;101168.81;4968359;28;45484;-61
2022/05/29 09:44:29;;;;;;;;;3.00;1.50;;;;;18.13;36.77;101173.97;4984496;28;45646;-62
2022/05/29 09:49:40;;;;;;;;;1.00;1.00;;;;;18.17;36.69;101167.59;4966955;28;45345;-62
2022/05/29 09:49:49;;;;;;;;;1.00;1.00;;;;;18.23;36.69;101177.13;4968728;28;45319;-58
2022/05/29 09:55:32;;;;;;;;;2.50;2.50;;;;;18.30;36.42;101165.31;6060311;23;46472;31
2022/05/29 09:58:02;;;;;;;;;2.00;2.00;;;;;18.37;36.71;101160.63;4927776;28;45245;-59
2022/05/29 10:00:34;;;;;;;;;3.50;1.75;;;;;18.40;36.26;101157.81;4920151;28;45486;-57
2022/05/29 10:03:01;;;;;;;;;1.00;1.00;;;;;18.49;36.39;101163.66;4925851;28;45391;-57
2022/05/29 10:05:31;;;;;;;;;3.00;3.00;;;;;18.61;36.15;101156.09;4916690;28;45529;-60
2022/05/29 10:07:58;;;;;;;;;1.00;1.00;;;;;18.72;36.28;101160.97;4907511;28;45687;-58
2022/05/29 10:10:24;;;;;;;;;2.00;2.00;;;;;18.80;36.27;101154.41;4929705;28;45279;-58
2022/05/29 10:12:49;;;;;;;;;2.00;1.00;;;;;18.84;35.95;101157.78;4928237;28;45350;-62
2022/05/29 10:17:54;;;;;;;;;1.75;1.25;;;;;18.86;35.78;101139.94;5501924;23;46125;-56
2022/05/29 10:20:44;;;;;;;;;5.25;5.25;;;;;18.87;35.83;101146.13;4968998;28;45409;-59
2022/05/29 10:23:32;;;;;;;;;18.50;16.00;;;;;18.85;35.94;101151.53;4967548;28;45335;-55
2022/05/29 10:26:22;;;;;;;;;9.50;9.50;;;;;18.86;35.90;101153.25;4957420;28;45479;-54
2022/05/29 10:28:49;;;;;;;;;0.25;0.25;;;;;18.83;35.58;101151.59;4963250;28;45473;-53
2022/05/29 10:39:17;;;;;;;;;2.00;2.00;;;;;19.71;36.01;101130.91;4989024;23;45775;-56
2022/05/29 10:41:44;;;;;;;;;3.00;3.00;;;;;20.10;35.92;101124.66;4970875;28;45464;-57
2022/05/29 10:44:33;;;;;;;;;4.00;4.00;;;;;20.57;35.98;101133.06;4966890;28;45362;-52
2022/05/29 10:47:06;;;;;;;;;3.00;2.00;;;;;21.05;35.87;101128.00;4965850;28;45658;-50
2022/05/29 10:49:37;;;;;;;;;2.00;1.50;;;;;21.42;35.73;101107.31;4968140;28;46212;-52
2022/05/29 10:52:35;;;;;;;;;5.25;4.25;;;;;21.75;35.77;101115.34;4966464;28;45698;-52
2022/05/29 10:55:52;;;;;;;;;5.25;5.25;;;;;22.06;35.46;101110.09;4967161;28;45236;-54
2022/05/29 10:58:30;;;;;;;;;6.00;6.00;;;;;22.26;35.42;101116.97;4938570;28;45455;-53
2022/05/29 11:04:45;;;;;;;;;3.25;2.00;;;;;22.47;34.64;101114.91;4968936;28;45472;-50
2022/05/29 11:07:11;;;;;;;;;3.75;3.00;;;;;22.50;34.70;101111.19;4965496;28;45417;-53
2022/05/29 11:09:57;;;;;;;;;4.50;3.00;;;;;22.49;34.45;101118.38;4969464;28;45519;-53
2022/05/29 11:12:32;;;;;;;;;4.50;4.50;;;;;22.49;34.41;101113.03;4970350;28;45569;-52
2022/05/29 11:15:19;;;;;;;;;3.00;3.00;;;;;22.45;34.26;101110.59;4965475;28;45358;-52
2022/05/29 11:18:02;;;;;;;;;2.50;2.50;;;;;22.38;33.87;101104.75;4967602;28;45371;-52
2022/05/29 11:20:46;;;;;;;;;1.50;1.50;;;;;22.31;34.04;101114.91;4969508;28;46172;-53
2022/05/29 11:23:22;;;;;;;;;3.00;3.00;;;;;22.23;33.69;101111.81;4965663;28;46137;-53
2022/05/29 11:25:53;;;;;;;;;3.00;3.00;;;;;22.16;33.53;101105.97;4967209;28;45584;-55
2022/05/29 11:28:33;;;;;;;;;1.50;1.50;;;;;22.12;33.91;101098.19;4968608;28;45423;-52
2022/05/29 11:31:08;;;;;;;;;3.50;2.00;;;;;22.09;33.69;101099.22;4957029;28;45271;-52
2022/05/29 11:34:01;;;;;;;;;5.50;4.00;;;;;22.06;33.74;101094.91;4968109;28;47023;-51
2022/05/29 11:36:54;;;;;;;;;3.00;3.00;;;;;22.03;33.49;101092.41;4966893;28;45230;-54
2022/05/29 11:39:31;;;;;;;;;2.75;2.00;;;;;21.97;33.10;101090.06;4958637;28;45440;-54
2022/05/29 11:42:13;;;;;;;;;1.50;1.50;;;;;21.99;33.11;101079.31;4964331;28;45400;-53
2022/05/29 11:44:45;;;;;;;;;2.50;2.50;;;;;21.96;33.09;101069.66;4965384;28;47523;-55
2022/05/29 11:53:41;;;;;;;;;4.75;3.25;;;;;22.03;33.25;101071.00;4967993;28;45551;-55
2022/05/29 11:56:23;;;;;;;;;7.00;7.00;;;;;22.06;32.82;101068.16;4969169;28;45652;-56
2022/05/29 11:59:13;;;;;;;;;1.25;1.25;;;;;22.07;32.92;101064.53;4958616;28;45342;-57
2022/05/29 12:01:46;;;;;;;;;4.00;3.50;;;;;22.07;32.80;101059.19;4925922;28;45744;-57
2022/05/29 12:04:36;;;;;;;;;3.75;2.00;;;;;22.04;32.97;101059.34;4969250;28;45404;-55
2022/05/29 12:07:18;;;;;;;;;2.00;1.75;;;;;22.03;32.55;101046.91;4959602;28;45351;-54
2022/05/29 12:09:52;;;;;;;;;3.25;3.25;;;;;22.04;32.91;101048.66;4965730;28;45395;-55
2022/05/29 12:12:24;;;;;;;;;2.75;1.00;;;;;22.08;32.36;101042.16;4967419;28;45355;-54
2022/05/29 12:15:18;;;;;;;;;2.25;2.25;;;;;22.11;32.68;101032.25;4964651;28;45450;-55
2022/05/29 12:18:02;;;;;;;;;2.75;2.75;;;;;22.12;32.48;101040.16;4962842;28;46348;-54
2022/05/29 12:20:36;;;;;;;;;2.50;2.00;;;;;22.16;32.34;101038.19;4968048;28;45649;-53
2022/05/29 12:23:27;;;;;;;;;1.25;1.25;;;;;22.21;32.53;101033.41;4964475;28;45300;-55
2022/05/29 12:26:00;;;;;;;;;1.50;1.50;;;;;;;;4961439;28;45408;-57
2022/05/29 12:28:54;;;;;;;;;2.00;2.00;;;;;22.42;32.04;101027.81;4967728;28;45530;-57
2022/05/29 12:31:41;;;;;;;;;4.00;3.75;;;;;22.53;32.19;101028.00;4964049;28;45346;-55
2022/05/29 12:34:17;;;;;;;;;1.00;1.00;;;;;22.68;32.17;101023.56;4963910;28;45440;-55
2022/05/29 12:37:07;;;;;;;;;1.00;1.00;;;;;22.94;32.08;101016.56;4969020;28;45537;-54
2022/05/29 12:40:06;;;;;;;;;7.00;5.75;;;;;23.21;31.90;101010.50;4963288;28;46498;-56
2022/05/29 12:42:52;;;;;;;;;4.75;4.75;;;;;23.37;31.91;101018.44;4956791;28;45438;-53
2022/05/29 12:45:26;;;;;;;;;3.25;3.00;;;;;23.44;31.76;101024.25;4962820;28;45295;-52
2022/05/29 12:47:57;;;;;;;;;2.00;2.00;;;;;23.45;31.33;101023.28;4966691;28;45433;-59
2022/05/29 12:50:43;;;;;;;;;1.50;1.50;;;;;23.39;31.88;101016.50;4966131;28;45437;-67
2022/05/29 12:53:46;;;;;;;;;3.50;2.00;;;;;23.33;31.68;101022.25;4964590;28;45385;-58
2022/05/29 12:56:14;;;;;;;;;3.00;3.00;;;;;23.24;31.42;101012.97;4967948;28;45249;-56
2022/05/29 12:58:39;;;;;;;;;4.00;2.00;;;;;23.16;32.25;101016.13;4965342;28;45322;-53
2022/05/29 13:01:13;;;;;;;;;5.00;5.00;;;;;23.08;31.34;101018.41;4968185;28;47844;-57
2022/05/29 13:04:11;;;;;;;;;7.00;6.50;;;;;22.99;31.65;101017.16;4962812;28;45526;-57
2022/05/29 13:07:07;;;;;;;;;4.25;4.25;;;;;22.88;31.55;101020.50;4967262;28;45461;-55
2022/05/29 13:09:50;;;;;;;;;4.00;4.00;;;;;22.78;31.42;101019.34;4966987;28;45535;-55
2022/05/29 13:12:21;;;;;;;;;3.75;1.00;;;;;22.70;31.41;101019.81;4970388;28;45556;-55
2022/05/29 13:14:56;;;;;;;;;2.25;2.25;;;;;22.63;31.25;101013.13;4959869;28;45454;-54
2022/05/29 13:17:25;;;;;;;;;2.25;2.00;;;;;22.58;31.09;101006.28;4954877;28;45276;-57
2022/05/29 13:19:57;;;;;;;;;3.00;2.00;;;;;22.54;31.05;101002.94;4968134;28;45339;-58
2022/05/29 13:23:00;;;;;;;;;2.50;2.00;;;;;22.52;31.52;100999.50;4969796;28;46266;-57
2022/05/29 13:25:52;;;;;;;;;1.50;1.50;;;;;22.61;31.24;100984.69;4971502;28;46375;-55
2022/05/29 13:28:41;;;;;;;;;2.50;2.50;;;;;22.74;31.05;100980.28;4970107;28;45476;-56
2022/05/29 13:31:09;;;;;;;;;1.25;1.00;;;;;22.84;31.45;100972.56;4961567;28;45167;-56
2022/05/29 13:33:44;;;;;;;;;5.00;4.00;;;;;22.91;31.28;100970.38;4967747;28;45526;-56
2022/05/29 13:36:31;;;;;;;;;2.00;2.00;;;;;22.95;31.11;100982.63;4967793;28;45492;-57
2022/05/29 13:38:57;;;;;;;;;2.00;1.00;;;;;22.98;30.91;100980.59;4958330;28;45248;-57
2022/05/29 13:41:28;;;;;;;;;3.00;1.50;;;;;23.00;30.90;100978.66;4970123;28;45392;-57
2022/05/29 13:43:53;;;;;;;;;3.00;1.25;;;;;23.00;30.79;100976.00;4967685;28;49581;-57
2022/05/29 13:46:27;;;;;;;;;3.00;1.50;;;;;22.99;31.07;100965.38;4967858;28;45270;-57
2022/05/29 13:49:02;;;;;;;;;5.00;3.75;;;;;22.96;31.01;100961.06;4967746;28;45322;-58
2022/05/29 13:51:35;;;;;;;;;4.00;3.00;;;;;22.93;30.86;100963.09;4969961;28;45243;-58
2022/05/29 13:54:01;;;;;;;;;3.00;1.75;;;;;22.93;30.72;100955.94;4951902;28;45511;-58
2022/05/29 13:56:53;;;;;;;;;1.00;1.00;;;;;22.91;30.81;100951.63;4977788;28;45255;-58
2022/05/29 14:05:21;;;;;;;;;3.00;1.75;;;;;23.10;30.68;100946.78;4950932;28;45227;-58
2022/05/29 14:08:19;;;;;;;;;2.00;2.00;;;;;23.15;30.62;100944.72;4962599;28;46192;-58
2022/05/29 14:10:50;;;;;;;;;1.00;1.00;;;;;23.25;30.53;100949.50;4960885;28;45352;-63
2022/05/29 14:13:37;;;;;;;;;2.25;1.50;;;;;23.32;30.72;100945.44;4950920;28;45612;-64
2022/05/29 14:16:14;;;;;;;;;2.00;2.00;;;;;23.37;30.62;100941.53;4962211;28;45447;-62
2022/05/29 14:19:03;;;;;;;;;1.00;1.00;;;;;23.43;30.44;100931.34;4961042;28;45485;-71
2022/05/29 14:21:28;;;;;;;;;2.00;2.00;;;;;23.50;30.51;100927.31;4962415;28;45515;-66
2022/05/29 14:23:56;;;;;;;;;1.25;1.00;;;;;23.69;30.31;100925.13;4962148;28;45371;-62
2022/05/29 14:26:49;;;;;;;;;2.00;1.00;;;;;23.95;30.65;100917.19;4962495;28;46402;-60
2022/05/29 14:29:28;;;;;;;;;2.00;2.00;;;;;24.15;30.41;100904.19;4962416;28;45243;-57
2022/05/29 14:32:17;;;;;;;;;1.75;1.75;;;;;24.27;30.25;100903.34;4962247;28;45243;-60
2022/05/29 14:34:55;;;;;;;;;2.50;2.00;;;;;24.38;30.33;100901.75;4961051;28;45401;-59
2022/05/29 14:37:35;;;;;;;;;3.00;1.75;;;;;24.34;30.33;100899.28;4956842;28;46191;-58
2022/05/29 14:40:10;;;;;;;;;2.00;2.00;;;;;24.33;30.05;100894.03;4955909;28;45260;-59
2022/05/29 14:42:40;;;;;;;;;1.00;1.00;;;;;24.27;30.30;100900.66;4961195;28;45480;-58
2022/05/29 14:45:12;;;;;;;;;1.25;0.75;;;;;24.24;30.08;100906.28;4976674;28;46353;-57
2022/05/29 14:47:56;;;;;;;;;2.00;1.25;;;;;24.14;30.20;100883.72;4962154;28;46559;-58
2022/05/29 14:50:32;;;;;;;;;2.25;1.75;;;;;24.13;30.06;100898.94;4961983;28;45446;-57
2022/05/29 14:53:11;;;;;;;;;3.00;3.00;;;;;24.09;29.72;100899.28;4973934;28;45472;-59
2022/05/29 14:55:57;;;;;;;;;1.00;1.00;;;;;24.04;29.92;100883.50;4960690;28;45505;-58
2022/05/29 14:58:33;;;;;;;;;1.75;1.75;;;;;24.04;29.62;100878.13;4976935;28;47422;-58
2022/05/29 15:01:02;;;;;;;;;0.50;0.50;;;;;24.05;30.01;100874.47;4962028;28;45445;-58
2022/05/29 15:03:31;;;;;;;;;2.00;2.00;;;;;24.08;29.83;100862.66;4961466;28;45354;-57
2022/05/29 15:05:59;;;;;;;;;3.75;2.00;;;;;24.10;29.59;100863.41;4961772;28;45250;-57
2022/05/29 15:11:21;;;;;;;;;2.50;1.00;;;;;24.21;29.64;100863.50;4961542;28;45394;-57
2022/05/29 15:14:01;;;;;;;;;2.00;2.00;;;;;24.29;30.08;100863.84;4961852;28;45470;-58
2022/05/29 15:16:28;;;;;;;;;3.00;3.00;;;;;24.32;29.97;100855.56;4950359;28;45213;-58
2022/05/29 15:18:54;;;;;;;;;1.00;0.00;;;;;24.37;29.63;100849.88;4976479;28;47296;-58
2022/05/29 15:24:14;;;;;;;;;1.00;1.00;;;;;24.47;29.81;100852.78;4961714;28;45245;-58
2022/05/29 15:26:49;;;;;;;;;5.75;5.75;;;;;24.49;29.81;100842.78;4960378;28;45264;-58
2022/05/29 15:29:28;;;;;;;;;3.25;3.25;;;;;24.56;29.46;100843.19;4948018;28;45554;-58
2022/05/29 15:31:54;;;;;;;;;1.00;1.00;;;;;24.60;29.74;100836.63;4960246;28;46062;-59
2022/05/29 15:34:59;;;;;;;;;2.00;1.00;;;;;24.65;29.62;100835.38;4961817;28;45425;-58
2022/05/29 15:37:43;;;;;;;;;1.00;1.00;;;;;24.66;29.56;100829.00;4945899;28;45168;-57
2022/05/29 15:40:14;;;;;;;;;4.00;4.00;;;;;24.67;29.84;100829.88;4956248;28;46347;-57
2022/05/29 15:43:04;;;;;;;;;3.50;3.00;;;;;24.60;29.57;100832.13;4976579;28;45389;-57
2022/05/29 15:45:44;;;;;;;;;5.00;5.00;;;;;24.58;29.09;100830.50;4959923;28;45394;-57
2022/05/29 15:48:37;;;;;;;;;3.75;2.25;;;;;24.56;29.32;100827.09;4961263;28;45283;-58
2022/05/29 15:51:12;;;;;;;;;3.00;3.00;;;;;24.54;29.05;100816.47;4960867;28;45425;-58
2022/05/29 15:53:46;;;;;;;;;1.75;1.75;;;;;24.58;29.25;100828.69;4960972;28;45413;-57
2022/05/29 15:56:13;;;;;;;;;1.00;1.00;;;;;24.60;29.34;100833.94;4961288;28;45232;-58
2022/05/29 15:58:44;;;;;;;;;1.50;1.00;;;;;24.59;29.13;100822.34;4961290;28;45298;-57
2022/05/29 16:01:11;;;;;;;;;1.75;1.25;;;;;24.59;28.86;100825.03;4960781;28;45341;-57
2022/05/29 16:03:38;;;;;;;;;2.00;1.00;;;;;24.56;29.28;100814.50;4961243;28;45328;-57
2022/05/29 16:06:18;;;;;;;;;1.00;1.00;;;;;24.56;29.05;100810.97;4961187;28;45226;-57
2022/05/29 16:08:59;;;;;;;;;2.75;1.25;;;;;24.51;28.77;100813.97;4960871;28;45310;-58
2022/05/29 16:11:52;;;;;;;;;1.50;1.25;;;;;24.45;28.67;100817.97;4960900;28;46739;-57
2022/05/29 16:14:38;;;;;;;;;2.00;2.00;;;;;24.38;29.03;100814.00;4960973;28;45244;-57
2022/05/29 16:17:13;;;;;;;;;3.00;2.00;;;;;24.26;29.13;100813.03;4961097;28;45311;-57
2022/05/29 16:20:07;;;;;;;;;3.00;2.00;;;;;24.10;28.83;100804.34;4948795;28;45610;-57
2022/05/29 16:23:17;;;;;;;;;3.50;3.50;;;;;23.98;29.17;100809.63;4944666;28;45342;-57
2022/05/29 16:26:02;;;;;;;;;4.50;3.25;;;;;23.85;28.90;100808.72;4935362;28;45293;-57
2022/05/29 16:28:40;;;;;;;;;1.25;0.00;;;;;23.70;29.05;100818.69;4920297;28;45355;-57
2022/05/29 16:31:14;;;;;;;;;1.00;1.00;;;;;23.57;29.07;100816.00;4943657;28;45243;-58
2022/05/29 16:33:46;;;;;;;;;3.75;2.50;;;;;23.43;28.84;100802.66;4960559;28;46377;-57
2022/05/29 16:36:33;;;;;;;;;2.00;2.00;;;;;23.31;29.02;100813.22;4948071;28;45302;-57
2022/05/29 16:48:10;;;;;;;;;2.00;2.00;;;;;22.97;29.05;100801.19;4982859;28;45263;-55
2022/05/29 16:50:48;;;;;;;;;3.50;2.50;;;;;22.94;29.17;100793.34;4983003;28;45353;-56
2022/05/29 16:53:18;;;;;;;;;3.25;3.25;;;;;22.93;29.17;100789.81;4973255;28;45348;-58
2022/05/29 16:55:51;;;;;;;;;4.50;4.00;;;;;22.91;29.28;100789.03;4982929;28;45433;-57
2022/05/29 16:58:34;;;;;;;;;4.00;3.00;;;;;22.98;28.79;100793.03;4955115;28;45439;-57
2022/05/29 17:01:23;;;;;;;;;2.75;2.00;;;;;23.04;29.14;100791.75;4963727;28;45346;-57
2022/05/29 17:04:16;;;;;;;;;3.00;3.00;;;;;23.09;29.13;100780.75;4963701;28;45227;-50
2022/05/29 17:07:10;;;;;;;;;3.25;3.25;;;;;23.14;29.08;100784.81;4963470;28;46322;-52
2022/05/29 17:12:10;;;;;;;;;2.00;2.00;;;;;23.32;29.16;100779.22;4963729;28;45299;-50
2022/05/29 17:14:38;;;;;;;;;4.00;4.00;;;;;23.40;29.18;100794.81;4963564;28;45535;-51
2022/05/29 17:17:04;;;;;;;;;3.00;2.25;;;;;23.44;28.91;100788.28;4978543;28;46928;-52
2022/05/29 17:19:30;;;;;;;;;4.25;2.00;;;;;23.43;29.46;100791.91;4963129;28;45369;-60
2022/05/29 17:22:05;;;;;;;;;3.75;3.75;;;;;23.39;29.44;100783.22;4963491;28;45440;-56
2022/05/29 17:24:41;;;;;;;;;4.00;4.00;;;;;23.35;29.03;100795.13;4963621;28;45329;-57
2022/05/29 17:27:12;;;;;;;;;3.00;3.00;;;;;23.26;29.14;100796.59;4963237;28;45490;-53
2022/05/29 17:30:05;;;;;;;;;5.75;4.00;;;;;23.16;29.21;100792.81;4960529;28;45804;-56
2022/05/29 17:32:40;;;;;;;;;2.00;2.00;;;;;23.07;29.02;100796.06;4956857;28;45830;-56
2022/05/29 17:43:32;;;;;;;;;4.00;4.00;;;;;22.89;29.27;100785.59;5749615;23;46575;-55
2022/05/29 17:46:18;;;;;;;;;3.00;3.00;;;;;22.89;29.24;100796.31;4962569;28;45509;-55
2022/05/29 17:48:54;;;;;;;;;3.25;3.00;;;;;22.83;28.92;100786.00;4961315;28;46242;-56
2022/05/29 17:51:44;;;;;;;;;3.00;3.00;;;;;22.75;29.13;100782.97;4960452;28;46191;-56
2022/05/29 17:54:28;;;;;;;;;5.75;3.00;;;;;22.67;28.92;100788.81;4961239;28;45586;-55
2022/05/29 17:56:54;;;;;;;;;6.75;6.00;;;;;22.53;28.99;100777.16;4977414;28;45422;-55
2022/05/29 17:59:20;;;;;;;;;7.00;6.00;;;;;22.48;29.29;100783.78;4977870;28;48820;-55
2022/05/29 18:01:46;;;;;;;;;9.75;7.00;;;;;22.28;29.00;100760.94;4962459;28;45413;-57
2022/05/29 18:04:12;;;;;;;;;7.50;7.25;;;;;22.24;29.34;100782.53;4962612;28;45311;-55
2022/05/29 18:06:38;;;;;;;;;4.25;4.25;;;;;22.13;29.49;100773.47;4962352;28;45180;-56
2022/05/29 18:09:04;;;;;;;;;3.00;3.00;;;;;21.98;29.57;100770.75;4962590;28;45321;-56
2022/05/29 18:11:33;;;;;;;;;5.50;4.75;;;;;21.87;29.72;100774.13;4974156;28;45250;-54
2022/05/29 18:13:58;;;;;;;;;5.00;4.00;;;;;21.78;29.56;100773.81;4955058;28;45341;-57
2022/05/29 18:16:23;;;;;;;;;8.00;6.00;;;;;21.69;29.58;100783.25;4962702;28;45318;-55
2022/05/29 18:18:49;;;;;;;;;5.50;4.25;;;;;21.58;29.44;100783.88;4962772;28;45370;-56
2022/05/29 18:21:15;;;;;;;;;4.25;4.25;;;;;21.47;29.76;100776.50;4962678;28;45394;-56
2022/05/29 18:23:41;;;;;;;;;6.50;5.00;;;;;21.39;29.75;100784.94;4962670;28;45545;-57
2022/05/29 18:26:06;;;;;;;;;4.00;3.25;;;;;21.28;29.60;100782.03;4962426;28;45172;-56
2022/05/29 18:28:33;;;;;;;;;5.75;5.75;;;;;21.20;29.64;100782.50;4962511;28;45176;-57
2022/05/29 18:30:59;;;;;;;;;4.50;3.75;;;;;21.10;29.56;100781.31;4962481;28;45247;-56
2022/05/29 18:33:24;;;;;;;;;5.50;4.00;;;;;21.00;29.20;100782.78;4962488;28;45409;-56
2022/05/29 18:35:50;;;;;;;;;3.00;3.00;;;;;20.91;29.30;100786.84;4977410;28;45252;-57
2022/05/29 18:38:15;;;;;;;;;4.50;4.50;;;;;20.82;29.47;100784.69;4949891;28;46152;-56
2022/05/29 18:40:41;;;;;;;;;4.75;4.75;;;;;20.73;29.61;100786.94;4961417;28;45241;-56
2022/05/29 18:43:07;;;;;;;;;4.00;4.00;;;;;20.63;30.11;100788.38;4962400;28;45413;-56
2022/05/29 18:45:34;;;;;;;;;4.00;4.00;;;;;20.58;29.89;100793.13;4961712;28;45366;-54
2022/05/29 18:47:59;;;;;;;;;4.00;3.00;;;;;20.51;29.66;100789.06;4961948;28;46420;-55
2022/05/29 18:50:29;;;;;;;;;7.00;7.00;;;;;20.42;30.13;100785.94;4960761;28;45401;-55
2022/05/29 18:52:55;;;;;;;;;2.75;2.75;;;;;20.38;29.71;100792.38;4962024;28;45369;-55
2022/05/29 18:55:20;;;;;;;;;5.00;3.25;;;;;20.30;30.23;100783.94;4961081;28;45287;-55
2022/05/29 18:57:46;;;;;;;;;6.25;4.00;;;;;20.28;30.33;100780.50;4961817;28;45702;-55
2022/05/29 19:00:16;;;;;;;;;4.00;4.00;;;;;20.23;29.86;100777.22;4960801;28;45418;-55
2022/05/29 19:02:43;;;;;;;;;3.25;2.00;;;;;20.16;30.06;100776.66;4961799;28;45355;-53
2022/05/29 19:05:12;;;;;;;;;6.00;4.50;;;;;20.13;30.56;100782.19;4961937;28;45163;-55
2022/05/29 19:07:37;;;;;;;;;4.25;4.25;;;;;20.06;30.07;100780.78;4961390;28;45275;-53
2022/05/29 19:10:04;;;;;;;;;4.00;4.00;;;;;19.99;30.75;100774.94;4961826;28;45310;-52
2022/05/29 19:12:31;;;;;;;;;4.00;4.00;;;;;19.91;30.34;100775.34;4961729;28;45611;-55
2022/05/29 19:14:57;;;;;;;;;3.75;3.75;;;;;19.86;30.60;100776.50;4960548;28;45363;-53
2022/05/29 19:20:08;;;;;;;;;4.50;4.50;;;;;19.69;31.01;100770.22;4962047;28;45325;-53
2022/05/29 19:22:34;;;;;;;;;4.50;3.50;;;;;19.67;30.73;100773.91;4961419;28;45272;-55
2022/05/29 19:25:02;;;;;;;;;4.00;4.00;;;;;19.60;30.40;100765.38;4961670;28;45313;-55
2022/05/29 19:27:29;;;;;;;;;6.00;4.00;;;;;19.53;30.86;100767.47;4961346;28;45366;-55
2022/05/29 19:29:58;;;;;;;;;4.75;4.75;;;;;19.45;31.26;100759.88;4961628;28;45361;-52
2022/05/29 19:32:23;;;;;;;;;4.00;3.75;;;;;19.42;31.04;100764.50;4961422;28;45212;-55
2022/05/29 19:34:49;;;;;;;;;4.00;4.00;;;;;19.36;30.74;100762.16;4961579;28;45379;-53
2022/05/29 19:37:14;;;;;;;;;3.50;3.50;;;;;19.24;31.28;100753.00;4957126;28;46474;-54
2022/05/29 19:39:41;;;;;;;;;3.00;3.00;;;;;19.22;31.30;100766.38;4967670;28;45256;-53
2022/05/29 19:42:06;;;;;;;;;3.75;3.75;;;;;19.14;30.97;100761.44;4961544;28;45334;-53
2022/05/29 19:44:36;;;;;;;;;4.50;4.50;;;;;19.10;30.98;100759.84;4960494;28;45390;-54
2022/05/29 19:47:03;;;;;;;;;4.25;4.00;;;;;19.02;31.62;100770.03;4960458;28;46180;-55
2022/05/29 19:49:28;;;;;;;;;4.25;4.25;;;;;18.93;31.51;100768.69;4961323;28;45235;-54
2022/05/29 19:51:54;;;;;;;;;4.50;3.50;;;;;18.89;31.39;100772.38;4961163;28;45269;-54
2022/05/29 19:54:19;;;;;;;;;4.00;4.00;;;;;18.80;31.65;100784.38;4961384;28;45246;-54
2022/05/29 19:56:45;;;;;;;;;4.00;4.00;;;;;18.75;31.89;100774.88;4961077;28;45283;-53
2022/05/29 19:59:11;;;;;;;;;5.00;3.50;;;;;18.68;31.84;100787.63;4961452;28;45228;-53
2022/05/29 20:01:36;;;;;;;;;5.00;4.00;;;;;18.59;31.98;100780.94;4961274;28;45486;-54
2022/05/29 20:04:03;;;;;;;;;7.00;6.00;;;;;18.56;31.63;100794.34;4960974;28;45431;-54
2022/05/29 20:06:33;;;;;;;;;5.50;5.50;;;;;18.50;32.14;100799.97;4960773;28;47011;-58
2022/05/29 20:08:58;;;;;;;;;4.50;4.50;;;;;18.43;32.10;100799.41;4961040;28;45276;-58
2022/05/29 20:11:29;;;;;;;;;5.00;5.00;;;;;18.36;32.14;100803.25;4960815;28;45176;-58
2022/05/29 20:13:57;;;;;;;;;4.00;4.00;;;;;18.32;32.28;100801.69;4960939;28;45411;-58
2022/05/29 20:16:28;;;;;;;;;4.00;3.00;;;;;18.25;32.22;100805.56;4959947;28;45321;-58
2022/05/29 20:18:55;;;;;;;;;4.75;4.00;;;;;18.19;32.17;100804.06;4960709;28;45374;-58
2022/05/29 20:21:23;;;;;;;;;3.25;3.00;;;;;18.07;32.33;100794.81;4960774;28;45310;-57
2022/05/29 20:23:50;;;;;;;;;4.00;4.00;;;;;18.09;32.48;100811.56;4960565;28;45254;-59
2022/05/29 20:26:17;;;;;;;;;3.75;3.00;;;;;18.01;32.69;100811.91;4960791;28;45269;-54
2022/05/29 20:28:43;;;;;;;;;5.00;3.00;;;;;17.96;32.55;100813.91;4960550;28;45512;-57
2022/05/29 20:41:30;;;;;;;;;9.50;6.00;;;;;17.66;33.03;100816.03;5681057;23;46400;-53
2022/05/29 20:43:56;;;;;;;;;6.50;6.00;;;;;17.59;33.34;100812.78;4960334;28;45232;-52
2022/05/29 20:49:10;;;;;;;;;4.00;4.00;;;;;17.50;33.41;100814.03;4950125;28;45344;-51
2022/05/29 20:51:36;;;;;;;;;0.00;0.00;;;;;17.45;33.42;100813.38;4960387;28;45398;-53
2022/05/29 20:54:03;;;;;;;;;7.00;4.00;;;;;17.39;33.57;100808.31;4975312;28;45497;-53
2022/05/29 20:56:30;;;;;;;;;3.00;3.00;;;;;17.33;33.86;100809.47;4956981;28;46288;-49